Maybe — 2ASG3 — position and weather

sailwx.info

Track history (hours):
 
Tides and Currents Weather Stations Pressure Air Temp Water Temp Dewpoint Dewpoint Depression Visibility Wind Speed Wind Dir Waves Ship Positions

Maybe

Last reported at 2019-Jun-16 11:45 UTC. Time now 2019-Jun-16 14:36 UTC.
Position N 55°45' W 004°59'.

Length 28 m.

Type: Pleasure craft. MMSI: 235062552.

Date/timePositionNaut miles runAvg speedWind from/ knotsBaromVisibWave heightAir tempDewpointWater temp
2019-Jun-16 11:45N 55°45' W 004°59'1 2.6
2019-Jun-16 11:15N 55°46' W 004°60'1 6.1
2019-Jun-16 11:00N 55°47' W 004°58'2 4.3
2019-Jun-16 10:29N 55°49' W 004°55'3 5.6
2019-Jun-16 10:00N 55°50' W 004°59'3 3.6
2019-Jun-16 09:17N 55°51' W 005°03'0 0.0
2019-Jun-16 08:41N 55°51' W 005°03'0 0.0
2019-Jun-16 08:29N 55°51' W 005°03'0 0.0
2019-Jun-16 06:20N 55°51' W 005°03'0 0.0
2019-Jun-16 05:59N 55°51' W 005°03'0 0.0
2019-Jun-16 05:26N 55°51' W 005°03'0 0.0
2019-Jun-16 04:53N 55°51' W 005°03'0 0.0
2019-Jun-16 04:26N 55°51' W 005°03'0 0.0
2019-Jun-16 03:59N 55°51' W 005°03'0 0.0
2019-Jun-16 03:29N 55°51' W 005°03'0 0.0
2019-Jun-16 02:59N 55°51' W 005°03'0 0.0
2019-Jun-16 02:29N 55°51' W 005°03'0 0.0
2019-Jun-16 01:56N 55°51' W 005°03'0 0.0
2019-Jun-16 01:29N 55°51' W 005°03'0 0.0
2019-Jun-16 00:59N 55°51' W 005°03'0 0.0
2019-Jun-16 00:23N 55°51' W 005°03'0 0.0
2019-Jun-15 23:56N 55°51' W 005°03'0 0.0
2019-Jun-15 23:26N 55°51' W 005°03'1 2.4
2019-Jun-15 23:00N 55°51' W 005°01'2 4.0
2019-Jun-15 22:30N 55°52' W 004°58'2 3.9
2019-Jun-15 22:00N 55°52' W 004°54'1 2.0
2019-Jun-15 21:30N 55°53' W 004°56'1 2.4
2019-Jun-15 21:00N 55°54' W 004°55'2 3.1
2019-Jun-15 20:22N 55°56' W 004°54'1 2.9
2019-Jun-15 19:57N 55°57' W 004°53'0 0.0
2019-Jun-14 19:27N 55°57' W 004°53'0 0.5
2019-Jun-14 18:42N 55°57' W 004°53'1 1.6
2019-Jun-14 18:23N 55°57' W 004°52'1 0.6
2019-Jun-14 17:19N 55°58' W 004°51'0 0.0
2019-Jun-12 19:34N 55°57' W 004°51'1 4.1
2019-Jun-12 19:24N 55°57' W 004°52'1 2.2
2019-Jun-12 18:59N 55°57' W 004°53'1 2.0
2019-Jun-12 18:30N 55°56' W 004°54'1 2.4
2019-Jun-12 18:00N 55°55' W 004°54'1 2.9
2019-Jun-12 17:30N 55°53' W 004°55'2 3.1
2019-Jun-12 17:00N 55°52' W 004°54'2 4.6
2019-Jun-12 16:30N 55°51' W 004°58'2 3.2
2019-Jun-12 16:00N 55°50' W 005°01'1 2.8
2019-Jun-12 15:30N 55°49' W 004°59'3 4.3
2019-Jun-12 14:53N 55°47' W 004°57'1 2.8
2019-Jun-12 14:21N 55°46' W 004°58'0 0.1
2019-Jun-12 10:15N 55°46' W 004°59'1 5.0
2019-Jun-12 09:59N 55°47' W 004°59'2 4.9
2019-Jun-12 09:30N 55°50' W 004°60'2 3.5
2019-Jun-12 09:00N 55°51' W 005°00'0 0.2
2019-Jun-12 08:30N 55°51' W 004°60'0 0.0
2019-Jun-12 08:00N 55°51' W 004°60'0 0.0
2019-Jun-12 07:30N 55°51' W 004°60'0 0.0
2019-Jun-12 07:00N 55°51' W 004°60'0 0.0
2019-Jun-12 06:30N 55°51' W 004°60'0 0.0
2019-Jun-12 06:00N 55°51' W 004°60'0 0.0
2019-Jun-12 05:30N 55°51' W 004°60'0 0.0
2019-Jun-12 05:00N 55°51' W 004°60'0 0.0
2019-Jun-12 04:30N 55°51' W 004°60'0 0.0
2019-Jun-12 04:00N 55°51' W 004°60'0 0.0
2019-Jun-12 03:30N 55°51' W 004°60'0 0.0
2019-Jun-12 03:00N 55°51' W 004°60'0 0.0
2019-Jun-12 02:30N 55°51' W 004°60'0 0.0
2019-Jun-12 01:30N 55°51' W 004°60'0 0.0
2019-Jun-12 01:00N 55°51' W 004°60'0 0.0
2019-Jun-12 00:30N 55°51' W 004°60'0 0.0
2019-Jun-12 00:00N 55°51' W 004°60'0 0.0
2019-Jun-11 23:30N 55°51' W 004°60'0 0.0
2019-Jun-11 23:00N 55°51' W 004°60'0 0.0
2019-Jun-11 22:27N 55°51' W 004°60'0 0.0
2019-Jun-11 21:57N 55°51' W 004°60'0 0.0
2019-Jun-11 21:30N 55°51' W 004°60'0 0.0
2019-Jun-11 21:00N 55°51' W 004°60'0 0.0
2019-Jun-11 20:30N 55°52' W 004°60'1 2.4
2019-Jun-11 19:58N 55°52' W 005°02'1 2.9
2019-Jun-11 19:30N 55°51' W 005°00'2 3.6
2019-Jun-11 19:00N 55°52' W 004°57'2 4.3
2019-Jun-11 18:30N 55°54' W 004°56'2 3.6
2019-Jun-11 17:59N 55°55' W 004°54'2 3.4
2019-Jun-11 17:27N 55°57' W 004°53'2 0.2
2019-Jun-11 07:15N 55°58' W 004°50'1 4.3
2019-Jun-11 07:00N 55°58' W 004°52'3 0.2
2019-Jun-10 17:08N 55°56' W 004°54'1 4.4
2019-Jun-10 16:58N 55°55' W 004°55'1 1.6
2019-Jun-10 16:30N 55°54' W 004°54'1 2.3
2019-Jun-10 16:00N 55°54' W 004°56'2 3.6
2019-Jun-10 15:30N 55°52' W 004°57'2 4.4
2019-Jun-10 15:00N 55°51' W 005°01'1 2.7
2019-Jun-10 14:28N 55°51' W 005°03'1 0.3
2019-Jun-10 12:35N 55°50' W 005°03'0 0.0
2019-Jun-10 12:23N 55°50' W 005°03'0 0.0
2019-Jun-10 11:59N 55°50' W 005°03'0 0.0
2019-Jun-10 11:02N 55°50' W 005°03'0 0.0
2019-Jun-10 10:44N 55°50' W 005°03'0 0.0
2019-Jun-10 10:26N 55°50' W 005°03'2 4.0
2019-Jun-10 10:00N 55°52' W 005°04'2 0.1
2019-Jun-09 19:38N 55°53' W 005°05'1 5.9
2019-Jun-09 19:26N 55°53' W 005°04'2 5.4
2019-Jun-09 19:00N 55°51' W 005°00'2 4.4
2019-Jun-09 18:30N 55°51' W 004°57'3 5.0
2019-Jun-09 18:00N 55°54' W 004°55'1 2.8
2019-Jun-09 17:30N 55°55' W 004°56'1 2.8
2019-Jun-09 17:00N 55°56' W 004°54'2 1.2
2019-Jun-09 15:23N 55°58' W 004°52'1 0.0
2019-Jun-08 16:05N 55°57' W 004°53'1 5.0
2019-Jun-08 15:57N 55°56' W 004°54'2 4.4
2019-Jun-08 15:30N 55°54' W 004°55'2 4.5
2019-Jun-08 15:00N 55°52' W 004°57'2 3.8
2019-Jun-08 14:30N 55°51' W 004°59'2 3.8
2019-Jun-08 14:00N 55°51' W 005°03'1 1.1
2019-Jun-08 13:28N 55°50' W 005°03'0 0.0
2019-Jun-08 12:58N 55°50' W 005°03'0 0.0
2019-Jun-08 12:25N 55°50' W 005°03'0 0.0
2019-Jun-08 11:31N 55°50' W 005°03'0 0.0
2019-Jun-08 11:28N 55°50' W 005°03'0 0.0
2019-Jun-08 10:55N 55°50' W 005°03'0 0.0
2019-Jun-08 10:07N 55°50' W 005°03'0 3.2
2019-Jun-08 09:58N 55°51' W 005°03'2 0.1
2019-Jun-07 18:15N 55°53' W 005°04'1 4.8
2019-Jun-07 18:00N 55°52' W 005°03'2 4.7
2019-Jun-07 17:30N 55°51' W 004°59'1 2.6
2019-Jun-07 17:00N 55°52' W 004°57'2 3.2
2019-Jun-07 16:30N 55°53' W 004°56'2 3.8
2019-Jun-07 16:00N 55°55' W 004°55'2 4.3
2019-Jun-07 15:30N 55°57' W 004°53'  
Track history (hours):
 
Tides and Currents Weather Stations Pressure Air Temp Water Temp Dewpoint Dewpoint Depression Visibility Wind Speed Wind Dir Waves Ship Positions

Maybe

Last reported at 2019-Jun-16 11:45 UTC. Time now 2019-Jun-16 14:36 UTC.
Position N 55°45' W 004°59'.

Length 28 m.

Type: Pleasure craft. MMSI: 235062552.

Date/timePositionNaut miles runAvg speedWind from/ knotsBaromVisibWave heightAir tempDewpointWater temp
2019-Jun-16 11:45N 55°45' W 004°59'1 2.6
2019-Jun-16 11:15N 55°46' W 004°60'1 6.1
2019-Jun-16 11:00N 55°47' W 004°58'2 4.3
2019-Jun-16 10:29N 55°49' W 004°55'3 5.6
2019-Jun-16 10:00N 55°50' W 004°59'3 3.6
2019-Jun-16 09:17N 55°51' W 005°03'0 0.0
2019-Jun-16 08:41N 55°51' W 005°03'0 0.0
2019-Jun-16 08:29N 55°51' W 005°03'0 0.0
2019-Jun-16 06:20N 55°51' W 005°03'0 0.0
2019-Jun-16 05:59N 55°51' W 005°03'0 0.0
2019-Jun-16 05:26N 55°51' W 005°03'0 0.0
2019-Jun-16 04:53N 55°51' W 005°03'0 0.0
2019-Jun-16 04:26N 55°51' W 005°03'0 0.0
2019-Jun-16 03:59N 55°51' W 005°03'0 0.0
2019-Jun-16 03:29N 55°51' W 005°03'0 0.0
2019-Jun-16 02:59N 55°51' W 005°03'0 0.0
2019-Jun-16 02:29N 55°51' W 005°03'0 0.0
2019-Jun-16 01:56N 55°51' W 005°03'0 0.0
2019-Jun-16 01:29N 55°51' W 005°03'0 0.0
2019-Jun-16 00:59N 55°51' W 005°03'0 0.0
2019-Jun-16 00:23N 55°51' W 005°03'0 0.0
2019-Jun-15 23:56N 55°51' W 005°03'0 0.0
2019-Jun-15 23:26N 55°51' W 005°03'1 2.4
2019-Jun-15 23:00N 55°51' W 005°01'2 4.0
2019-Jun-15 22:30N 55°52' W 004°58'2 3.9
2019-Jun-15 22:00N 55°52' W 004°54'1 2.0
2019-Jun-15 21:30N 55°53' W 004°56'1 2.4
2019-Jun-15 21:00N 55°54' W 004°55'2 3.1
2019-Jun-15 20:22N 55°56' W 004°54'1 2.9
2019-Jun-15 19:57N 55°57' W 004°53'0 0.0
2019-Jun-14 19:27N 55°57' W 004°53'0 0.5
2019-Jun-14 18:42N 55°57' W 004°53'1 1.6
2019-Jun-14 18:23N 55°57' W 004°52'1 0.6
2019-Jun-14 17:19N 55°58' W 004°51'0 0.0
2019-Jun-12 19:34N 55°57' W 004°51'1 4.1
2019-Jun-12 19:24N 55°57' W 004°52'1 2.2
2019-Jun-12 18:59N 55°57' W 004°53'1 2.0
2019-Jun-12 18:30N 55°56' W 004°54'1 2.4
2019-Jun-12 18:00N 55°55' W 004°54'1 2.9
2019-Jun-12 17:30N 55°53' W 004°55'2 3.1
2019-Jun-12 17:00N 55°52' W 004°54'2 4.6
2019-Jun-12 16:30N 55°51' W 004°58'2 3.2
2019-Jun-12 16:00N 55°50' W 005°01'1 2.8
2019-Jun-12 15:30N 55°49' W 004°59'3 4.3
2019-Jun-12 14:53N 55°47' W 004°57'1 2.8
2019-Jun-12 14:21N 55°46' W 004°58'0 0.1
2019-Jun-12 10:15N 55°46' W 004°59'1 5.0
2019-Jun-12 09:59N 55°47' W 004°59'2 4.9
2019-Jun-12 09:30N 55°50' W 004°60'2 3.5
2019-Jun-12 09:00N 55°51' W 005°00'0 0.2
2019-Jun-12 08:30N 55°51' W 004°60'0 0.0
2019-Jun-12 08:00N 55°51' W 004°60'0 0.0
2019-Jun-12 07:30N 55°51' W 004°60'0 0.0
2019-Jun-12 07:00N 55°51' W 004°60'0 0.0
2019-Jun-12 06:30N 55°51' W 004°60'0 0.0
2019-Jun-12 06:00N 55°51' W 004°60'0 0.0
2019-Jun-12 05:30N 55°51' W 004°60'0 0.0
2019-Jun-12 05:00N 55°51' W 004°60'0 0.0
2019-Jun-12 04:30N 55°51' W 004°60'0 0.0
2019-Jun-12 04:00N 55°51' W 004°60'0 0.0
2019-Jun-12 03:30N 55°51' W 004°60'0 0.0
2019-Jun-12 03:00N 55°51' W 004°60'0 0.0
2019-Jun-12 02:30N 55°51' W 004°60'0 0.0
2019-Jun-12 01:30N 55°51' W 004°60'0 0.0
2019-Jun-12 01:00N 55°51' W 004°60'0 0.0
2019-Jun-12 00:30N 55°51' W 004°60'0 0.0
2019-Jun-12 00:00N 55°51' W 004°60'0 0.0
2019-Jun-11 23:30N 55°51' W 004°60'0 0.0
2019-Jun-11 23:00N 55°51' W 004°60'0 0.0
2019-Jun-11 22:27N 55°51' W 004°60'0 0.0
2019-Jun-11 21:57N 55°51' W 004°60'0 0.0
2019-Jun-11 21:30N 55°51' W 004°60'0 0.0
2019-Jun-11 21:00N 55°51' W 004°60'0 0.0
2019-Jun-11 20:30N 55°52' W 004°60'1 2.4
2019-Jun-11 19:58N 55°52' W 005°02'1 2.9
2019-Jun-11 19:30N 55°51' W 005°00'2 3.6
2019-Jun-11 19:00N 55°52' W 004°57'2 4.3
2019-Jun-11 18:30N 55°54' W 004°56'2 3.6
2019-Jun-11 17:59N 55°55' W 004°54'2 3.4
2019-Jun-11 17:27N 55°57' W 004°53'2 0.2
2019-Jun-11 07:15N 55°58' W 004°50'1 4.3
2019-Jun-11 07:00N 55°58' W 004°52'3 0.2
2019-Jun-10 17:08N 55°56' W 004°54'1 4.4
2019-Jun-10 16:58N 55°55' W 004°55'1 1.6
2019-Jun-10 16:30N 55°54' W 004°54'1 2.3
2019-Jun-10 16:00N 55°54' W 004°56'2 3.6
2019-Jun-10 15:30N 55°52' W 004°57'2 4.4
2019-Jun-10 15:00N 55°51' W 005°01'1 2.7
2019-Jun-10 14:28N 55°51' W 005°03'1 0.3
2019-Jun-10 12:35N 55°50' W 005°03'0 0.0
2019-Jun-10 12:23N 55°50' W 005°03'0 0.0
2019-Jun-10 11:59N 55°50' W 005°03'0 0.0
2019-Jun-10 11:02N 55°50' W 005°03'0 0.0
2019-Jun-10 10:44N 55°50' W 005°03'0 0.0
2019-Jun-10 10:26N 55°50' W 005°03'2 4.0
2019-Jun-10 10:00N 55°52' W 005°04'2 0.1
2019-Jun-09 19:38N 55°53' W 005°05'1 5.9
2019-Jun-09 19:26N 55°53' W 005°04'2 5.4
2019-Jun-09 19:00N 55°51' W 005°00'2 4.4
2019-Jun-09 18:30N 55°51' W 004°57'3 5.0
2019-Jun-09 18:00N 55°54' W 004°55'1 2.8
2019-Jun-09 17:30N 55°55' W 004°56'1 2.8
2019-Jun-09 17:00N 55°56' W 004°54'2 1.2
2019-Jun-09 15:23N 55°58' W 004°52'1 0.0
2019-Jun-08 16:05N 55°57' W 004°53'1 5.0
2019-Jun-08 15:57N 55°56' W 004°54'2 4.4
2019-Jun-08 15:30N 55°54' W 004°55'2 4.5
2019-Jun-08 15:00N 55°52' W 004°57'2 3.8
2019-Jun-08 14:30N 55°51' W 004°59'2 3.8
2019-Jun-08 14:00N 55°51' W 005°03'1 1.1
2019-Jun-08 13:28N 55°50' W 005°03'0 0.0
2019-Jun-08 12:58N 55°50' W 005°03'0 0.0
2019-Jun-08 12:25N 55°50' W 005°03'0 0.0
2019-Jun-08 11:31N 55°50' W 005°03'0 0.0
2019-Jun-08 11:28N 55°50' W 005°03'0 0.0
2019-Jun-08 10:55N 55°50' W 005°03'0 0.0
2019-Jun-08 10:07N 55°50' W 005°03'0 3.2
2019-Jun-08 09:58N 55°51' W 005°03'2 0.1
2019-Jun-07 18:15N 55°53' W 005°04'1 4.8
2019-Jun-07 18:00N 55°52' W 005°03'2 4.7
2019-Jun-07 17:30N 55°51' W 004°59'1 2.6
2019-Jun-07 17:00N 55°52' W 004°57'2 3.2
2019-Jun-07 16:30N 55°53' W 004°56'2 3.8
2019-Jun-07 16:00N 55°55' W 004°55'2 4.3
2019-Jun-07 15:30N 55°57' W 004°53'  

Dump ship's entire track history